Time;durP1;ratioP1;P1;durP2;ratioP2;P2;SDS_P1;SDS_P2;PMS_P1;PMS_P2;Temp;Humidity;BMP_temperature;BMP_pressure;BME280_temperature;BME280_humidity;BME280_pressure;Samples;Min_cycle;Max_cycle;Signal;HPM_P1;HPM_P2
2022/07/08 00:02:00;;;;;;;11.45;1.70;;;;;;;18.17;53.02;100146.13;5185154;28;20053;-70
2022/07/08 00:04:50;;;;;;;9.27;2.42;;;;;;;18.24;51.01;100149.81;5200253;28;20072;-69
2022/07/08 00:07:41;;;;;;;9.40;1.80;;;;;;;18.56;50.52;100140.13;5199540;28;20052;-69
2022/07/08 00:10:31;;;;;;;5.93;1.70;;;;;;;18.98;49.32;100150.72;5197806;28;20057;-68
2022/07/08 00:13:21;;;;;;;7.03;1.80;;;;;;;18.92;49.07;100146.03;5188439;28;20053;-69
2022/07/08 00:16:11;;;;;;;6.00;1.52;;;;;;;18.81;49.92;100154.44;5205400;28;20179;-68
2022/07/08 00:19:02;;;;;;;9.25;2.45;;;;;;;18.81;49.53;100153.59;5189907;28;20522;-70
2022/07/08 00:21:52;;;;;;;8.68;1.75;;;;;;;18.73;49.84;100151.75;5184615;28;20100;-69
2022/07/08 00:24:43;;;;;;;7.35;2.00;;;;;;;18.77;50.65;100159.31;5185049;28;20188;-69
2022/07/08 00:27:33;;;;;;;6.63;1.65;;;;;;;18.84;50.24;100161.31;5193331;28;20507;-68
2022/07/08 00:30:24;;;;;;;7.35;1.67;;;;;;;18.42;50.75;100167.66;5186924;28;20495;-69
2022/07/08 00:33:14;;;;;;;7.72;2.22;;;;;;;18.30;51.17;100167.13;5202524;28;20068;-68
2022/07/08 00:36:04;;;;;;;9.63;2.60;;;;;;;18.44;50.44;100174.56;5184629;28;20050;-69
2022/07/08 00:38:55;;;;;;;8.95;2.17;;;;;;;18.39;50.83;100173.34;5190367;28;20568;-69
2022/07/08 00:41:45;;;;;;;7.43;2.30;;;;;;;18.23;50.83;100179.53;5169666;28;20057;-70
2022/07/08 00:44:35;;;;;;;5.55;2.58;;;;;;;17.62;52.49;100181.47;5184463;28;20211;-69
2022/07/08 00:47:26;;;;;;;6.97;2.53;;;;;;;17.97;52.05;100187.66;5185029;28;20146;-68
2022/07/08 00:50:17;;;;;;;10.40;2.67;;;;;;;17.90;51.85;100183.97;5191510;28;20163;-68
2022/07/08 00:53:07;;;;;;;7.25;2.95;;;;;;;17.90;52.57;100192.84;5199516;28;20618;-68
2022/07/08 00:55:58;;;;;;;13.73;2.90;;;;;;;17.86;51.72;100194.19;5200953;28;20656;-69
2022/07/08 00:58:49;;;;;;;6.07;3.05;;;;;;;17.96;52.15;100180.63;5188259;28;20050;-68
2022/07/08 01:01:40;;;;;;;18.67;3.25;;;;;;;17.89;51.59;100182.28;5181364;28;20092;-69
2022/07/08 01:04:31;;;;;;;9.82;2.95;;;;;;;17.52;53.10;100189.63;5192518;28;20132;-68
2022/07/08 01:07:22;;;;;;;8.30;2.70;;;;;;;17.52;52.64;100178.91;5203571;28;20769;-68
2022/07/08 01:10:12;;;;;;;8.25;3.03;;;;;;;17.81;52.02;100189.31;5181644;28;20511;-69
2022/07/08 01:13:04;;;;;;;10.02;3.13;;;;;;;17.71;51.95;100196.56;5184087;28;20423;-69
2022/07/08 01:15:55;;;;;;;8.43;2.83;;;;;;;17.71;52.67;100191.22;5182828;28;20097;-69
2022/07/08 01:18:45;;;;;;;8.73;2.75;;;;;;;17.66;52.12;100174.78;5190484;28;20532;-68
2022/07/08 01:21:36;;;;;;;9.75;2.22;;;;;;;17.64;51.69;100190.19;5183375;28;20042;-69
2022/07/08 01:24:26;;;;;;;10.75;2.65;;;;;;;17.37;52.82;100180.50;5191158;28;20470;-69
2022/07/08 01:27:16;;;;;;;8.05;2.28;;;;;;;17.54;51.91;100179.56;5203532;28;20059;-68
2022/07/08 01:30:07;;;;;;;8.10;2.70;;;;;;;17.34;52.37;100186.16;5178542;28;20140;-68
2022/07/08 01:32:58;;;;;;;9.63;2.55;;;;;;;17.40;53.25;100195.41;5183305;28;20563;-69
2022/07/08 01:35:48;;;;;;;7.43;2.33;;;;;;;16.81;53.56;100158.50;5184651;28;20057;-69
2022/07/08 01:38:38;;;;;;;11.18;2.90;;;;;;;17.54;52.50;100189.47;5202038;28;20049;-68
2022/07/08 01:41:29;;;;;;;6.03;2.28;;;;;;;17.31;52.38;100203.41;5201488;28;20124;-69
2022/07/08 01:44:19;;;;;;;7.25;2.38;;;;;;;17.54;52.71;100198.34;5190346;28;20404;-69
2022/07/08 01:47:10;;;;;;;13.68;2.47;;;;;;;17.13;52.91;100203.47;5183363;28;20061;-68
2022/07/08 01:50:00;;;;;;;13.15;2.70;;;;;;;17.17;53.00;100205.81;5193917;28;20069;-68
2022/07/08 01:52:51;;;;;;;7.47;2.53;;;;;;;16.90;53.58;100207.63;5187078;28;20054;-69
2022/07/08 01:55:41;;;;;;;7.93;2.10;;;;;;;17.13;52.86;100202.63;5184706;28;20057;-68
2022/07/08 01:58:32;;;;;;;9.15;2.08;;;;;;;17.18;53.42;100219.06;5195961;28;20064;-68
2022/07/08 02:01:22;;;;;;;8.27;2.40;;;;;;;17.12;53.08;100211.66;5182203;28;20160;-69
2022/07/08 02:04:13;;;;;;;10.85;2.33;;;;;;;16.90;52.78;100208.47;5186802;28;20175;-68
2022/07/08 02:07:04;;;;;;;8.02;2.40;;;;;;;16.81;53.77;100222.78;5203005;28;20526;-70
2022/07/08 02:09:54;;;;;;;8.30;2.40;;;;;;;16.81;53.71;100224.63;5185303;28;20054;-68
2022/07/08 02:12:44;;;;;;;10.52;2.40;;;;;;;17.09;53.37;100236.94;5188517;28;20467;-70
2022/07/08 02:15:34;;;;;;;10.57;2.60;;;;;;;17.04;52.73;100238.38;5183130;28;20057;-69
2022/07/08 02:18:25;;;;;;;8.38;2.08;;;;;;;17.16;52.77;100230.94;5188825;28;20057;-69
2022/07/08 02:21:16;;;;;;;10.85;2.08;;;;;;;17.10;53.65;100233.25;5188675;28;20049;-69
2022/07/08 02:24:06;;;;;;;7.10;2.40;;;;;;;17.06;53.34;100225.69;5198692;28;20073;-68
2022/07/08 02:26:56;;;;;;;7.90;2.38;;;;;;;16.88;53.40;100226.53;5182776;28;20053;-68
2022/07/08 02:29:47;;;;;;;11.85;2.15;;;;;;;16.85;53.34;100232.22;5187170;28;20064;-68
2022/07/08 02:32:37;;;;;;;8.50;2.05;;;;;;;16.94;53.95;100237.63;5189297;28;20051;-68
2022/07/08 02:35:27;;;;;;;9.40;2.30;;;;;;;17.07;53.54;100238.91;5188666;28;20191;-69
2022/07/08 02:38:20;;;;;;;5.00;2.08;;;;;;;16.88;53.12;100239.91;5171607;28;20131;-68
2022/07/08 02:41:10;;;;;;;6.65;3.22;;;;;;;16.84;53.81;100243.06;5182675;28;20048;-70
2022/07/08 02:44:00;;;;;;;7.32;2.10;;;;;;;16.81;53.91;100246.88;5196887;28;20054;-69
2022/07/08 02:46:50;;;;;;;9.25;2.22;;;;;;;17.06;52.99;100263.19;5190743;28;20063;-69
2022/07/08 02:49:41;;;;;;;10.15;2.80;;;;;;;16.77;54.35;100266.94;5186788;28;20057;-68
2022/07/08 02:52:31;;;;;;;10.02;2.22;;;;;;;16.80;54.06;100273.84;5167971;28;20050;-69
2022/07/08 02:55:21;;;;;;;7.50;2.47;;;;;;;16.88;53.04;100269.38;5182249;28;20054;-68
2022/07/08 02:58:12;;;;;;;6.55;2.25;;;;;;;16.60;53.90;100260.56;5185303;28;20120;-68
2022/07/08 03:01:02;;;;;;;11.00;3.00;;;;;;;16.84;54.05;100268.00;5183860;28;20731;-68
2022/07/08 03:03:53;;;;;;;8.80;1.98;;;;;;;16.58;54.10;100259.03;5198248;28;20052;-70
2022/07/08 03:06:43;;;;;;;8.55;2.60;;;;;;;16.37;54.37;100270.00;5193887;28;20160;-69
2022/07/08 03:09:33;;;;;;;10.52;2.72;;;;;;;16.19;55.05;100269.94;5198581;28;20119;-68
2022/07/08 03:12:25;;;;;;;13.45;2.00;;;;;;;16.42;54.87;100270.38;5189313;28;20056;-68
2022/07/08 03:15:16;;;;;;;8.95;2.78;;;;;;;16.61;54.92;100280.97;5186427;28;20069;-68
2022/07/08 03:18:06;;;;;;;12.05;2.53;;;;;;;16.35;55.26;100285.38;5193052;28;20053;-68
2022/07/08 03:20:56;;;;;;;15.55;2.35;;;;;;;16.33;55.48;100285.53;5201999;28;20046;-68
2022/07/08 03:23:46;;;;;;;10.50;2.13;;;;;;;16.17;55.68;100296.03;5201002;28;20045;-68
2022/07/08 03:26:36;;;;;;;14.63;3.00;;;;;;;16.19;55.60;100291.34;5192286;28;20345;-68
2022/07/08 03:29:26;;;;;;;5.68;2.35;;;;;;;16.20;55.27;100295.75;5182412;28;20504;-69
2022/07/08 03:32:17;;;;;;;9.15;2.25;;;;;;;16.26;55.13;100304.97;5168586;28;20056;-68
2022/07/08 03:35:07;;;;;;;9.45;2.60;;;;;;;16.07;55.61;100297.91;5196379;28;20259;-68
2022/07/08 03:37:58;;;;;;;11.07;2.67;;;;;;;16.27;56.01;100314.72;5192866;28;20562;-70
2022/07/08 03:43:56;;;;;;;7.60;2.38;;;;;;;16.19;55.95;100319.00;5165969;28;20546;-70
2022/07/08 03:46:46;;;;;;;10.38;2.60;;;;;;;15.66;56.42;100314.25;5187136;28;20060;-70
2022/07/08 03:49:37;;;;;;;8.00;2.90;;;;;;;16.09;55.79;100322.66;5182144;28;20132;-69
2022/07/08 03:52:27;;;;;;;12.10;2.47;;;;;;;15.82;56.47;100326.16;5201311;28;20056;-69
2022/07/08 03:55:17;;;;;;;8.35;2.42;;;;;;;16.08;55.66;100323.66;5187158;28;20056;-70
2022/07/08 03:58:07;;;;;;;9.07;2.40;;;;;;;15.76;56.76;100327.59;5179856;28;20045;-69
2022/07/08 04:00:58;;;;;;;10.85;2.47;;;;;;;15.86;56.47;100331.06;5194577;28;20466;-69
2022/07/08 04:03:48;;;;;;;9.98;2.30;;;;;;;15.97;56.00;100325.53;5199749;28;20559;-70
2022/07/08 04:06:39;;;;;;;10.80;2.28;;;;;;;15.95;55.63;100324.00;5196114;28;20060;-68
2022/07/08 04:09:29;;;;;;;6.90;2.55;;;;;;;16.26;54.83;100346.00;5205155;28;20052;-70
2022/07/08 04:12:19;;;;;;;8.73;2.20;;;;;;;16.31;55.81;100338.34;5171830;28;20172;-68
2022/07/08 04:15:09;;;;;;;11.52;2.50;;;;;;;16.07;55.42;100322.00;5195472;28;20713;-70
2022/07/08 04:18:00;;;;;;;5.05;2.00;;;;;;;16.16;55.58;100334.50;5201153;28;20060;-69
2022/07/08 04:20:50;;;;;;;6.80;2.22;;;;;;;16.17;55.39;100336.19;5185075;28;20065;-69
2022/07/08 04:23:41;;;;;;;9.88;2.30;;;;;;;15.97;55.86;100324.69;5202071;28;20593;-69
2022/07/08 04:26:31;;;;;;;8.65;2.47;;;;;;;16.06;55.38;100331.84;5198511;28;20547;-69
2022/07/08 04:29:22;;;;;;;8.70;2.40;;;;;;;16.03;56.04;100323.28;5201443;28;20176;-69
2022/07/08 04:32:12;;;;;;;9.30;2.25;;;;;;;15.92;56.44;100340.34;5186147;28;20046;-68
2022/07/08 04:35:04;;;;;;;6.03;2.38;;;;;;;15.95;56.07;100334.69;5191656;28;20565;-68
2022/07/08 04:37:54;;;;;;;9.15;2.70;;;;;;;15.91;56.60;100335.97;5193878;28;20076;-69
2022/07/08 04:40:50;;;;;;;11.10;2.60;;;;;;;16.07;56.29;100335.38;5182339;28;20466;-69
2022/07/08 04:43:41;;;;;;;13.75;2.90;;;;;;;15.73;56.88;100333.22;5183693;28;20057;-69
2022/07/08 04:46:30;;;;;;;5.75;2.40;;;;;;;15.85;57.22;100337.38;5184111;28;20575;-68
2022/07/08 04:49:21;;;;;;;11.05;2.40;;;;;;;15.57;56.76;100324.91;5198716;28;20250;-69
2022/07/08 04:52:11;;;;;;;6.22;2.42;;;;;;;15.56;57.64;100337.41;5198994;28;20048;-70
2022/07/08 04:55:02;;;;;;;13.52;3.20;;;;;;;15.82;56.96;100340.34;5184211;28;20060;-69
2022/07/08 04:57:52;;;;;;;7.32;2.20;;;;;;;15.79;57.03;100345.16;5199533;28;20065;-70
2022/07/08 05:00:42;;;;;;;9.55;2.60;;;;;;;15.91;57.45;100347.50;5183936;28;20065;-68
2022/07/08 05:03:32;;;;;;;15.05;3.00;;;;;;;15.91;56.18;100334.13;5185441;28;20054;-70
2022/07/08 05:06:25;;;;;;;8.60;2.50;;;;;;;15.74;56.92;100342.91;5175003;28;20050;-70
2022/07/08 05:09:15;;;;;;;7.82;2.72;;;;;;;15.84;57.15;100337.56;5183814;28;20626;-69
2022/07/08 05:12:05;;;;;;;9.13;2.78;;;;;;;15.68;57.35;100352.34;5182458;28;20189;-68
2022/07/08 05:14:56;;;;;;;10.80;2.47;;;;;;;15.77;56.72;100331.94;5175780;28;20046;-68
2022/07/08 05:17:54;;;;;;;8.95;2.38;;;;;;;15.80;56.36;100328.97;5175348;28;20099;-68
2022/07/08 05:20:45;;;;;;;11.13;2.63;;;;;;;15.87;56.22;100337.25;5176996;28;20476;-67
2022/07/08 05:23:35;;;;;;;12.75;2.63;;;;;;;15.91;56.96;100346.69;5175311;28;20073;-69
2022/07/08 05:26:25;;;;;;;6.28;2.10;;;;;;;16.01;56.55;100343.97;5178040;28;20056;-68
2022/07/08 05:29:16;;;;;;;9.80;2.65;;;;;;;16.23;56.22;100353.47;5180957;28;20046;-67
2022/07/08 05:32:07;;;;;;;8.15;2.75;;;;;;;16.26;57.31;100350.47;5176097;28;20069;-68
2022/07/08 05:34:58;;;;;;;8.60;2.58;;;;;;;16.20;56.57;100344.75;5184928;28;20053;-68
2022/07/08 05:37:48;;;;;;;9.30;2.35;;;;;;;16.25;55.88;100360.34;5190588;28;20060;-67
2022/07/08 05:40:38;;;;;;;7.22;2.30;;;;;;;16.35;55.89;100361.16;5190931;28;20111;-66
2022/07/08 05:43:29;;;;;;;10.73;2.58;;;;;;;16.50;55.12;100369.56;5191876;28;20120;-67
2022/07/08 05:46:19;;;;;;;9.38;2.40;;;;;;;16.39;56.64;100357.22;5183149;28;20061;-68
2022/07/08 05:49:09;;;;;;;7.68;2.42;;;;;;;16.35;55.80;100371.84;5183257;28;20069;-69
2022/07/08 05:52:00;;;;;;;6.78;2.65;;;;;;;16.54;55.76;100367.41;5182620;28;20053;-69
2022/07/08 05:54:51;;;;;;;7.57;2.20;;;;;;;16.55;56.64;100372.59;5183711;28;20046;-69
2022/07/08 05:57:41;;;;;;;7.00;2.38;;;;;;;16.48;55.87;100384.06;5183537;28;20061;-69
2022/07/08 06:00:31;;;;;;;7.40;1.88;;;;;;;16.32;55.14;100379.34;5181702;28;20050;-69
2022/07/08 06:03:21;;;;;;;9.68;1.85;;;;;;;16.67;53.93;100381.31;5181967;28;20049;-69
2022/07/08 06:06:12;;;;;;;6.78;1.80;;;;;;;16.94;52.81;100355.50;5182465;28;20050;-69
2022/07/08 06:09:02;;;;;;;10.02;1.80;;;;;;;16.73;50.97;100372.69;5192993;28;20064;-69
2022/07/08 06:11:53;;;;;;;4.03;1.70;;;;;;;17.16;52.03;100371.16;5165545;28;21038;-71
2022/07/08 06:14:43;;;;;;;3.28;1.45;;;;;;;17.10;51.55;100386.00;5161496;28;20069;-69
2022/07/08 06:17:36;;;;;;;5.97;1.63;;;;;;;16.62;51.55;100378.22;5156581;28;20061;-69
2022/07/08 06:20:27;;;;;;;5.18;1.27;;;;;;;16.76;51.18;100385.81;5160942;28;20060;-69
2022/07/08 06:23:17;;;;;;;9.20;1.50;;;;;;;17.25;50.42;100378.28;5153879;28;20200;-69
2022/07/08 06:26:07;;;;;;;9.18;2.08;;;;;;;17.53;49.95;100383.53;5162319;28;20512;-68
2022/07/08 06:28:57;;;;;;;7.03;1.20;;;;;;;16.88;50.17;100392.63;5167981;28;20112;-68
2022/07/08 06:31:48;;;;;;;9.02;1.70;;;;;;;17.01;51.56;100384.22;5168384;28;20065;-68
2022/07/08 06:34:38;;;;;;;6.70;1.42;;;;;;;17.72;49.83;100398.63;5169053;28;20123;-70
2022/07/08 06:37:29;;;;;;;6.43;1.40;;;;;;;17.99;47.98;100390.47;5165200;28;20112;-69
2022/07/08 06:40:21;;;;;;;4.88;1.55;;;;;;;17.91;48.56;100387.72;5163799;28;20046;-69
2022/07/08 06:43:11;;;;;;;7.35;1.20;;;;;;;17.74;48.60;100392.09;5161608;28;20050;-69
2022/07/08 06:46:02;;;;;;;3.28;1.30;;;;;;;18.12;47.29;100405.31;5155887;28;20049;-71
2022/07/08 06:48:52;;;;;;;3.85;0.77;;;;;;;17.49;46.79;100392.91;5155367;28;20523;-71
2022/07/08 06:51:43;;;;;;;11.13;1.45;;;;;;;18.27;45.41;100399.19;5156839;28;20131;-70
2022/07/08 06:54:37;;;;;;;3.95;1.20;;;;;;;18.53;45.88;100414.44;5156932;28;20061;-69
2022/07/08 06:57:27;;;;;;;8.77;1.50;;;;;;;18.15;45.50;100400.47;5154363;28;20061;-70
2022/07/08 07:00:17;;;;;;;4.93;0.85;;;;;;;19.04;44.05;100415.34;5151534;28;20119;-69
2022/07/08 07:03:10;;;;;;;5.30;1.07;;;;;;;19.85;42.12;100405.69;5161289;28;20738;-70
2022/07/08 07:06:01;;;;;;;3.33;0.68;;;;;;;21.19;38.56;100403.06;5177510;28;20077;-70
2022/07/08 07:08:51;;;;;;;2.92;1.10;;;;;;;21.32;38.46;100410.53;5164454;28;21678;-69
2022/07/08 07:11:41;;;;;;;8.75;1.20;;;;;;;22.36;37.11;100413.59;5160670;28;20054;-70
2022/07/08 07:14:32;;;;;;;3.33;1.00;;;;;;;23.29;35.75;100415.63;5160769;28;20085;-70
2022/07/08 07:17:22;;;;;;;5.55;1.05;;;;;;;22.19;37.07;100407.53;5159553;28;20065;-70
2022/07/08 07:20:13;;;;;;;3.42;0.90;;;;;;;21.84;36.88;100409.00;5155201;28;20058;-70
2022/07/08 07:23:03;;;;;;;2.78;0.82;;;;;;;21.31;39.99;100409.72;5158489;28;20448;-70
2022/07/08 07:25:53;;;;;;;4.32;0.98;;;;;;;22.04;37.84;100419.09;5162951;28;21819;-70
2022/07/08 07:28:44;;;;;;;6.63;0.90;;;;;;;20.22;38.93;100374.66;5166054;28;20136;-70
2022/07/08 07:31:34;;;;;;;8.02;1.00;;;;;;;21.18;39.49;100420.25;5165716;28;20065;-70
2022/07/08 07:34:25;;;;;;;8.55;1.35;;;;;;;21.83;39.94;100424.38;5166367;28;20064;-70
2022/07/08 07:37:15;;;;;;;8.70;1.73;;;;;;;22.76;35.72;100417.66;5156316;28;20120;-70
2022/07/08 07:40:06;;;;;;;4.35;0.93;;;;;;;23.06;36.05;100429.28;5155648;28;20748;-70
2022/07/08 07:42:57;;;;;;;12.13;1.10;;;;;;;22.19;37.38;100426.44;5159709;28;20050;-70
2022/07/08 07:45:48;;;;;;;5.00;0.98;;;;;;;22.33;38.11;100431.00;5162488;28;20136;-70
2022/07/08 07:48:38;;;;;;;6.60;1.50;;;;;;;23.56;37.14;100422.13;5158026;28;20069;-70
2022/07/08 07:51:28;;;;;;;5.07;1.08;;;;;;;23.35;35.65;100409.44;5163430;28;20069;-70
2022/07/08 07:54:19;;;;;;;6.00;1.10;;;;;;;22.34;37.49;100419.16;5164777;28;20111;-70
2022/07/08 07:57:09;;;;;;;4.88;1.00;;;;;;;21.19;38.40;100407.59;5170082;28;20054;-70
2022/07/08 08:00:00;;;;;;;8.82;1.33;;;;;;;21.98;38.30;100424.38;5174100;28;20058;-70
2022/07/08 08:03:00;;;;;;;4.20;1.08;;;;;;;21.61;37.90;100409.88;5174838;28;20103;-70
2022/07/08 08:05:51;;;;;;;6.40;1.38;;;;;;;21.31;39.49;100419.66;5173437;28;20066;-71
2022/07/08 08:08:43;;;;;;;4.97;1.02;;;;;;;20.87;41.16;100415.69;5163295;28;20427;-70
2022/07/08 08:11:33;;;;;;;6.68;1.27;;;;;;;21.44;40.14;100424.50;5161576;28;20052;-69
2022/07/08 08:14:23;;;;;;;7.53;1.45;;;;;;;22.91;38.74;100432.00;5161686;28;20054;-70
2022/07/08 08:17:14;;;;;;;3.88;1.00;;;;;;;23.02;38.84;100430.72;5162237;28;20593;-70
2022/07/08 08:20:06;;;;;;;4.10;0.90;;;;;;;22.11;38.73;100423.75;5166070;28;20077;-69
2022/07/08 08:22:56;;;;;;;3.42;1.05;;;;;;;22.11;41.60;100421.06;5165091;28;20058;-69
2022/07/08 08:26:06;;;;;;;5.78;1.35;;;;;;;22.93;38.19;100432.69;5166765;28;20058;-69
2022/07/08 08:28:58;;;;;;;5.22;1.80;;;;;;;24.00;38.28;100431.91;5166468;28;20107;-69
2022/07/08 08:31:48;;;;;;;4.43;0.88;;;;;;;23.98;34.14;100427.75;5172251;28;20064;-67
2022/07/08 08:34:38;;;;;;;3.97;1.02;;;;;;;22.41;36.89;100421.97;5170127;28;20085;-68
2022/07/08 08:37:29;;;;;;;2.40;1.00;;;;;;;21.86;38.08;100423.16;5161953;28;20128;-70
2022/07/08 08:40:24;;;;;;;5.22;0.90;;;;;;;21.63;38.70;100425.88;5160286;28;20650;-69
2022/07/08 08:43:14;;;;;;;7.30;0.90;;;;;;;21.44;39.49;100421.81;5157297;28;20112;-70
2022/07/08 08:46:07;;;;;;;6.90;1.48;;;;;;;20.97;41.10;100412.78;5157179;28;20058;-70
2022/07/08 08:48:58;;;;;;;7.45;1.25;;;;;;;21.40;39.77;100407.84;5169118;28;20058;-71
2022/07/08 08:51:50;;;;;;;5.63;1.10;;;;;;;21.62;38.11;100429.59;5169649;28;20046;-70
2022/07/08 08:54:40;;;;;;;7.95;1.90;;;;;;;22.49;38.81;100416.47;5162016;28;20057;-69
2022/07/08 08:57:30;;;;;;;5.40;1.15;;;;;;;22.21;36.82;100414.41;5172661;28;20061;-70
2022/07/08 09:00:21;;;;;;;3.10;1.05;;;;;;;21.92;38.39;100404.38;5164282;28;20100;-70
2022/07/08 09:03:13;;;;;;;5.03;0.98;;;;;;;22.31;38.83;100419.53;5162391;28;20715;-70
2022/07/08 09:06:04;;;;;;;6.78;1.05;;;;;;;21.58;38.33;100418.31;5159827;28;20203;-69
2022/07/08 09:08:56;;;;;;;5.87;1.17;;;;;;;21.16;39.72;100416.91;5156813;28;20558;-70
2022/07/08 09:11:46;;;;;;;4.88;1.20;;;;;;;22.77;38.67;100421.19;5155184;28;20239;-72
2022/07/08 09:14:37;;;;;;;8.48;1.42;;;;;;;22.68;38.79;100415.91;5161369;28;20065;-69
2022/07/08 09:17:27;;;;;;;6.50;1.20;;;;;;;22.69;39.25;100416.75;5167589;28;20049;-69
2022/07/08 09:20:17;;;;;;;5.28;1.08;;;;;;;22.42;38.58;100410.16;5163444;28;20117;-70
2022/07/08 09:23:11;;;;;;;5.32;1.27;;;;;;;22.41;37.91;100406.56;5159215;28;20061;-69
2022/07/08 09:26:06;;;;;;;5.75;0.93;;;;;;;22.37;38.26;100401.75;5156952;28;20061;-70
2022/07/08 09:28:56;;;;;;;3.70;0.90;;;;;;;22.34;37.74;100416.47;5155511;28;20065;-69
2022/07/08 09:31:46;;;;;;;3.45;0.80;;;;;;;21.85;38.77;100422.31;5163697;28;20053;-69
2022/07/08 09:34:38;;;;;;;5.75;1.15;;;;;;;22.90;37.13;100427.63;5163761;28;20069;-69
2022/07/08 09:37:31;;;;;;;2.65;0.90;;;;;;;22.87;38.18;100384.72;5178679;28;20088;-67
2022/07/08 09:40:21;;;;;;;4.20;1.10;;;;;;;22.56;37.02;100430.09;5169079;28;20084;-68
2022/07/08 09:43:14;;;;;;;3.85;1.13;;;;;;;22.39;39.06;100429.44;5175590;28;20050;-68
2022/07/08 09:46:06;;;;;;;5.85;1.13;;;;;;;24.09;37.02;100421.78;5181179;28;20061;-69
2022/07/08 09:49:00;;;;;;;5.40;1.33;;;;;;;24.34;33.79;100422.16;5157723;28;20085;-68
2022/07/08 09:51:52;;;;;;;4.57;0.80;;;;;;;25.13;34.84;100413.59;5181164;28;20054;-70
2022/07/08 09:54:42;;;;;;;2.85;1.00;;;;;;;24.46;35.06;100417.03;5188472;28;20055;-68
2022/07/08 09:57:32;;;;;;;4.30;0.88;;;;;;;24.98;33.52;100411.03;5188638;28;20050;-68
2022/07/08 10:00:22;;;;;;;4.43;1.20;;;;;;;24.77;33.61;100416.59;5169457;28;20060;-68
2022/07/08 10:03:13;;;;;;;6.68;0.85;;;;;;;23.55;35.13;100415.03;5166202;28;20586;-68
2022/07/08 10:06:04;;;;;;;5.47;0.80;;;;;;;22.73;35.76;100410.75;5196968;28;20500;-68
2022/07/08 10:08:54;;;;;;;5.95;0.60;;;;;;;22.44;35.44;100397.25;5164712;28;20133;-68
2022/07/08 10:11:47;;;;;;;4.70;1.02;;;;;;;23.86;37.23;100417.41;5190299;28;20104;-69
2022/07/08 10:14:37;;;;;;;6.28;0.90;;;;;;;22.50;34.90;100416.28;5188634;28;20081;-68
2022/07/08 10:17:37;;;;;;;8.48;2.15;;;;;;;23.35;34.51;100412.13;5185539;28;20103;-68
2022/07/08 10:20:31;;;;;;;3.35;0.70;;;;;;;24.86;35.08;100407.22;5175385;28;20527;-70
2022/07/08 10:23:32;;;;;;;4.05;0.77;;;;;;;25.02;35.38;100403.31;5186970;28;20129;-70
2022/07/08 10:26:34;;;;;;;5.50;1.08;;;;;;;24.82;33.95;100395.94;5181665;28;20462;-71
2022/07/08 10:29:29;;;;;;;3.15;1.00;;;;;;;24.85;33.82;100400.97;5162109;28;20207;-69
2022/07/08 10:32:27;;;;;;;3.42;1.02;;;;;;;25.68;33.00;100389.88;5176327;28;20653;-70
2022/07/08 10:35:21;;;;;;;4.13;1.02;;;;;;;25.63;33.79;100402.41;5179215;28;20180;-68
2022/07/08 10:38:29;;;;;;;6.57;1.23;;;;;;;27.00;33.93;100407.00;5170372;28;20064;-68
2022/07/08 10:41:26;;;;;;;7.18;1.27;;;;;;;25.45;31.05;100405.75;5177054;28;20187;-68
2022/07/08 10:44:17;;;;;;;4.15;1.55;;;;;;;26.11;31.61;100410.38;5180540;28;20049;-67
2022/07/08 10:47:09;;;;;;;6.80;0.82;;;;;;;25.94;32.11;100412.69;5185625;28;20053;-68
2022/07/08 10:50:08;;;;;;;6.90;0.90;;;;;;;26.40;31.45;100398.22;5166448;28;20191;-68
2022/07/08 10:52:58;;;;;;;4.53;1.02;;;;;;;26.16;32.33;100411.44;5167510;28;20045;-68
2022/07/08 10:55:49;;;;;;;5.65;1.20;;;;;;;25.89;33.09;100404.34;5180559;28;20096;-70
2022/07/08 10:59:20;;;;;;;5.22;1.10;;;;;;;25.36;31.21;100401.53;5169560;28;20180;-70
2022/07/08 11:02:13;;;;;;;3.35;1.00;;;;;;;25.47;30.84;100395.53;5152624;28;20119;-71
2022/07/08 11:05:04;;;;;;;8.43;1.10;;;;;;;25.74;32.67;100389.06;5160560;28;20610;-69
2022/07/08 11:08:20;;;;;;;5.57;1.33;;;;;;;26.16;30.15;100389.69;5162201;28;20069;-71
2022/07/08 11:11:11;;;;;;;7.70;1.10;;;;;;;26.01;32.59;100375.47;5164966;28;20846;-69
2022/07/08 11:14:02;;;;;;;4.82;1.40;;;;;;;26.73;31.86;100397.31;5164574;28;20061;-69
2022/07/08 11:16:53;;;;;;;10.93;1.20;;;;;;;26.52;32.81;100388.34;5171148;28;20511;-68
2022/07/08 11:19:44;;;;;;;2.90;0.80;;;;;;;25.88;30.28;100392.63;5168857;28;20065;-68
2022/07/08 11:22:37;;;;;;;6.22;1.27;;;;;;;25.78;32.67;100397.63;5167976;28;20046;-68
2022/07/08 11:25:28;;;;;;;2.42;0.77;;;;;;;24.72;34.00;100384.63;5160942;28;20432;-69
2022/07/08 11:28:20;;;;;;;2.45;0.82;;;;;;;26.05;33.44;100398.47;5162095;28;20058;-68
2022/07/08 11:31:27;;;;;;;5.03;1.10;;;;;;;25.92;33.59;100406.63;5159639;28;20144;-69
2022/07/08 11:34:19;;;;;;;6.32;1.17;;;;;;;25.05;31.14;100398.31;5160512;28;20085;-69
2022/07/08 11:37:09;;;;;;;7.18;1.15;;;;;;;25.40;32.98;100391.97;5167906;28;20083;-68
2022/07/08 11:40:01;;;;;;;3.88;1.23;;;;;;;25.47;32.77;100395.53;5174403;28;20196;-68
2022/07/08 11:42:52;;;;;;;8.38;1.33;;;;;;;25.06;32.48;100393.72;5173613;28;20136;-68
2022/07/08 11:45:45;;;;;;;4.15;1.10;;;;;;;24.99;33.01;100392.88;5176231;28;20058;-68
2022/07/08 11:48:38;;;;;;;5.40;1.10;;;;;;;24.56;33.21;100350.56;5175159;28;20064;-68
2022/07/08 11:51:33;;;;;;;4.03;0.98;;;;;;;24.89;36.56;100387.00;5171215;28;20676;-68
2022/07/08 11:54:28;;;;;;;5.40;1.15;;;;;;;25.59;34.15;100377.56;5169060;28;20069;-68
2022/07/08 11:57:19;;;;;;;6.00;1.10;;;;;;;25.17;33.58;100376.06;5170472;28;20064;-68
2022/07/08 12:00:10;;;;;;;2.70;0.98;;;;;;;24.16;33.20;100368.44;5169376;28;20057;-69
2022/07/08 12:03:01;;;;;;;7.13;0.93;;;;;;;23.84;36.61;100365.34;5168277;28;20061;-67
2022/07/08 12:05:52;;;;;;;4.75;0.90;;;;;;;24.22;34.55;100373.09;5169142;28;20505;-68
2022/07/08 12:08:43;;;;;;;3.90;1.20;;;;;;;24.33;35.43;100369.81;5170967;28;20065;-68
2022/07/08 12:11:39;;;;;;;5.85;1.10;;;;;;;24.78;34.45;100347.72;5168991;28;20157;-68
2022/07/08 12:14:33;;;;;;;4.40;0.98;;;;;;;25.03;34.12;100361.56;5174317;28;20428;-68
2022/07/08 12:17:29;;;;;;;4.82;0.80;;;;;;;24.76;34.22;100361.47;5175607;28;20061;-68
2022/07/08 12:20:29;;;;;;;;;;;;;;;24.78;32.62;100361.28;5174410;28;20057;-65
2022/07/08 12:23:20;;;;;;;6.15;0.70;;;;;;;23.88;37.27;100353.06;5152175;28;19929;-68
2022/07/08 12:26:10;;;;;;;8.85;0.95;;;;;;;24.28;33.54;100345.19;5169492;28;20054;-68
2022/07/08 12:29:12;;;;;;;4.07;0.85;;;;;;;24.42;33.85;100350.72;5164579;28;20058;-70
2022/07/08 12:32:04;;;;;;;5.18;1.17;;;;;;;23.26;36.79;100348.34;5165464;28;20142;-69
2022/07/08 12:35:01;;;;;;;4.05;0.90;;;;;;;23.21;36.90;100353.47;5165346;28;20219;-68
2022/07/08 12:38:02;;;;;;;7.97;1.10;;;;;;;24.05;38.05;100350.06;5175346;28;20049;-68
2022/07/08 12:40:52;;;;;;;4.13;1.40;;;;;;;24.20;35.38;100345.34;5171241;28;20135;-68
2022/07/08 12:43:43;;;;;;;5.45;1.00;;;;;;;24.36;35.39;100349.59;5169478;28;20068;-70
2022/07/08 12:46:33;;;;;;;3.65;1.20;;;;;;;24.16;35.00;100352.19;5158971;28;20050;-69
2022/07/08 12:49:29;;;;;;;6.97;1.02;;;;;;;24.46;34.88;100341.13;5156956;28;20516;-68
2022/07/08 12:52:19;;;;;;;4.28;0.80;;;;;;;24.31;34.72;100344.78;5158994;28;20068;-69
2022/07/08 12:55:09;;;;;;;6.93;0.90;;;;;;;23.48;34.59;100342.91;5155184;28;20049;-69
2022/07/08 12:57:59;;;;;;;4.75;0.90;;;;;;;23.89;34.49;100341.19;5162479;28;20167;-70
2022/07/08 13:00:50;;;;;;;4.88;1.00;;;;;;;24.09;36.58;100335.06;5168255;28;20605;-68
2022/07/08 13:03:41;;;;;;;3.60;1.10;;;;;;;23.08;37.04;100348.78;5169357;28;20064;-69
2022/07/08 13:06:31;;;;;;;7.55;1.30;;;;;;;22.65;35.96;100345.13;5168236;28;20085;-67
2022/07/08 13:09:22;;;;;;;3.65;1.00;;;;;;;23.27;36.09;100347.31;5166212;28;20050;-68
2022/07/08 13:12:12;;;;;;;7.68;1.20;;;;;;;23.35;35.67;100341.78;5163597;28;20057;-70
2022/07/08 13:15:03;;;;;;;4.05;1.10;;;;;;;23.55;36.26;100339.25;5160972;28;20446;-70
2022/07/08 13:18:01;;;;;;;6.03;1.30;;;;;;;23.61;35.54;100330.34;5161506;28;20128;-68
2022/07/08 13:20:52;;;;;;;4.50;1.02;;;;;;;24.07;35.32;100339.84;5164346;28;20057;-69